createdAt,value
2018-05-11T00:01:22.735Z,8.03
2018-05-11T00:03:51.628Z,9.07
2018-05-11T00:06:19.963Z,8.70
2018-05-11T00:08:49.078Z,11.07
2018-05-11T00:11:17.436Z,11.60
2018-05-11T00:13:46.531Z,9.70
2018-05-11T00:16:14.904Z,9.50
2018-05-11T00:18:44.006Z,10.20
2018-05-11T00:21:13.052Z,9.20
2018-05-11T00:23:41.338Z,9.37
2018-05-11T00:26:11.180Z,10.33
2018-05-11T00:28:40.284Z,12.27
2018-05-11T00:31:08.591Z,10.07
2018-05-11T00:33:36.967Z,10.37
2018-05-11T00:36:05.352Z,12.20
2018-05-11T00:38:33.753Z,11.87
2018-05-11T00:41:03.065Z,11.17
2018-05-11T00:43:31.457Z,12.17
2018-05-11T00:45:59.782Z,10.37
2018-05-11T00:48:28.082Z,12.03
2018-05-11T00:50:56.404Z,10.50
2018-05-11T00:53:25.444Z,12.80
2018-05-11T00:55:53.791Z,12.23
2018-05-11T00:58:22.181Z,16.33
2018-05-11T01:00:50.530Z,13.97
2018-05-11T01:03:19.620Z,10.90
2018-05-11T01:05:48.701Z,11.57
2018-05-11T01:08:17.917Z,12.80
2018-05-11T01:10:47.044Z,13.43
2018-05-11T01:13:15.357Z,12.77
2018-05-11T01:15:43.755Z,13.77
2018-05-11T01:18:12.853Z,11.87
2018-05-11T01:20:41.927Z,11.90
2018-05-11T01:23:11.045Z,11.73
2018-05-11T01:25:39.557Z,10.23
2018-05-11T01:28:07.799Z,10.50
2018-05-11T01:30:36.192Z,10.70
2018-05-11T01:33:05.330Z,11.20
2018-05-11T01:35:33.634Z,10.77
2018-05-11T01:38:02.136Z,9.40
2018-05-11T01:40:30.600Z,10.90
2018-05-11T01:42:58.947Z,11.00
2018-05-11T01:45:28.057Z,10.47
2018-05-11T01:47:56.433Z,10.50
2018-05-11T01:50:24.894Z,9.93
2018-05-11T01:52:53.271Z,10.70
2018-05-11T01:55:21.627Z,9.60
2018-05-11T01:57:50.013Z,11.43
2018-05-11T02:00:18.359Z,9.67
2018-05-11T02:02:46.791Z,10.43
2018-05-11T02:05:15.111Z,10.10
2018-05-11T02:07:43.412Z,11.53
2018-05-11T02:10:11.764Z,10.83
2018-05-11T02:12:40.983Z,11.07
2018-05-11T02:15:15.301Z,10.93
2018-05-11T02:17:43.695Z,9.50
2018-05-11T02:20:12.862Z,12.60
2018-05-11T02:22:41.339Z,11.10
2018-05-11T02:25:10.436Z,10.37
2018-05-11T02:27:38.804Z,10.23
2018-05-11T02:30:07.909Z,10.77
2018-05-11T02:32:36.500Z,11.90
2018-05-11T02:35:05.238Z,11.83
2018-05-11T02:37:34.101Z,9.40
2018-05-11T02:40:02.412Z,11.00
2018-05-11T02:42:30.768Z,10.33
2018-05-11T02:44:59.068Z,9.80
2018-05-11T02:47:27.370Z,10.30
2018-05-11T02:49:56.447Z,10.07
2018-05-11T02:52:24.766Z,11.07
2018-05-11T02:54:53.855Z,10.50
2018-05-11T02:57:22.255Z,10.63
2018-05-11T02:59:50.571Z,12.87
2018-05-11T03:02:19.756Z,10.00
2018-05-11T03:04:48.114Z,8.90
2018-05-11T03:07:16.491Z,9.60
2018-05-11T03:09:44.804Z,8.10
2018-05-11T03:12:13.129Z,11.30
2018-05-11T03:14:42.988Z,8.50
2018-05-11T03:17:11.352Z,8.27
2018-05-11T03:19:39.694Z,9.13
2018-05-11T03:22:07.991Z,9.17
2018-05-11T03:24:36.351Z,8.43
2018-05-11T03:27:05.537Z,9.37
2018-05-11T03:29:34.675Z,7.60
2018-05-11T03:32:03.041Z,7.47
2018-05-11T03:34:31.496Z,9.40
2018-05-11T03:37:00.584Z,9.50
2018-05-11T03:39:28.909Z,14.20
2018-05-11T03:41:57.210Z,9.77
2018-05-11T03:44:25.556Z,8.60
2018-05-11T03:46:53.868Z,8.60
2018-05-11T03:49:22.998Z,8.30
2018-05-11T03:51:51.300Z,9.77
2018-05-11T03:54:19.709Z,8.70
2018-05-11T03:56:48.005Z,10.77
2018-05-11T03:59:16.368Z,8.70
2018-05-11T04:01:57.601Z,9.80
2018-05-11T04:04:37.687Z,12.83
2018-05-11T04:07:17.980Z,10.00
2018-05-11T04:09:47.052Z,9.97
2018-05-11T04:12:15.380Z,10.17
2018-05-11T04:14:43.789Z,14.93
2018-05-11T04:17:13.694Z,9.90
2018-05-11T04:19:42.069Z,12.17
2018-05-11T04:22:10.528Z,11.67
2018-05-11T04:24:38.873Z,9.63
2018-05-11T04:27:07.253Z,9.90
2018-05-11T04:29:36.356Z,9.23
2018-05-11T04:32:04.648Z,10.33
2018-05-11T04:34:33.749Z,11.17
2018-05-11T04:37:02.818Z,10.80
2018-05-11T04:39:31.096Z,15.40
2018-05-11T04:42:00.310Z,10.10
2018-05-11T04:44:30.027Z,11.87
2018-05-11T04:46:58.187Z,10.20
2018-05-11T04:49:27.263Z,11.13
2018-05-11T04:51:55.587Z,12.33
2018-05-11T04:54:23.864Z,10.60
2018-05-11T04:56:53.942Z,12.83
2018-05-11T04:59:22.307Z,14.20
2018-05-11T05:01:50.608Z,11.93
2018-05-11T05:04:18.973Z,12.50
2018-05-11T05:06:47.279Z,11.83
2018-05-11T05:09:15.596Z,13.37
2018-05-11T05:11:43.883Z,11.80
2018-05-11T05:14:12.174Z,12.80
2018-05-11T05:16:40.463Z,13.00
2018-05-11T05:19:09.611Z,13.17
2018-05-11T05:21:37.846Z,13.97
2018-05-11T05:24:08.454Z,12.50
2018-05-11T05:26:36.722Z,12.67
2018-05-11T05:29:05.003Z,12.70
2018-05-11T05:31:33.313Z,12.37
2018-05-11T05:34:02.363Z,15.40
2018-05-11T05:36:30.736Z,12.97
2018-05-11T05:38:59.032Z,13.37
2018-05-11T05:41:28.100Z,15.33
2018-05-11T05:43:56.396Z,12.40
2018-05-11T05:46:24.704Z,15.13
2018-05-11T05:48:53.778Z,13.03
2018-05-11T05:51:22.419Z,13.37
2018-05-11T05:53:50.866Z,13.00
2018-05-11T05:56:19.169Z,13.00
2018-05-11T05:58:47.488Z,13.37
2018-05-11T06:01:15.832Z,13.80
2018-05-11T06:03:44.169Z,12.43
2018-05-11T06:06:13.235Z,12.17
2018-05-11T06:08:41.531Z,13.03
2018-05-11T06:11:10.627Z,14.07
2018-05-11T06:13:38.926Z,13.27
2018-05-11T06:16:08.185Z,12.30
2018-05-11T06:18:36.451Z,13.47
2018-05-11T06:21:04.753Z,12.83
2018-05-11T06:23:33.103Z,14.23
2018-05-11T06:26:01.395Z,11.57
2018-05-11T06:28:29.698Z,12.40
2018-05-11T06:30:58.781Z,15.47
2018-05-11T06:33:27.835Z,12.90
2018-05-11T06:35:56.133Z,13.63
2018-05-11T06:38:24.455Z,12.47
2018-05-11T06:40:53.500Z,12.13
2018-05-11T06:43:21.811Z,12.90
2018-05-11T06:45:50.412Z,17.97
2018-05-11T06:48:19.595Z,12.70
2018-05-11T06:50:47.875Z,13.07
2018-05-11T06:53:16.947Z,13.23
2018-05-11T06:55:45.287Z,12.93
2018-05-11T06:58:13.539Z,14.03
2018-05-11T07:00:41.875Z,12.30
2018-05-11T07:03:10.215Z,13.67
2018-05-11T07:05:38.479Z,14.80
2018-05-11T07:08:06.890Z,12.43
2018-05-11T07:10:36.011Z,12.53
2018-05-11T07:13:05.096Z,12.13
2018-05-11T07:15:33.411Z,12.17
2018-05-11T07:18:02.516Z,12.37
2018-05-11T07:20:30.859Z,12.80
2018-05-11T07:22:59.937Z,13.30
2018-05-11T07:25:29.764Z,14.30
2018-05-11T07:27:58.075Z,12.57
2018-05-11T07:30:26.437Z,12.97
2018-05-11T07:32:54.751Z,12.90
2018-05-11T07:35:23.039Z,13.57
2018-05-11T07:37:51.367Z,16.90
2018-05-11T07:40:20.406Z,13.27
2018-05-11T07:42:48.714Z,12.40
2018-05-11T07:45:17.819Z,12.53
2018-05-11T07:47:46.173Z,12.20
2018-05-11T07:50:14.451Z,14.03
2018-05-11T07:52:42.734Z,12.50
2018-05-11T07:55:11.032Z,12.53
2018-05-11T07:57:39.323Z,11.33
2018-05-11T08:00:08.499Z,13.50
2018-05-11T08:02:36.803Z,15.05
2018-05-11T08:05:05.151Z,13.37
2018-05-11T08:07:33.428Z,13.27
2018-05-11T08:10:02.488Z,13.13
2018-05-11T08:12:30.815Z,11.27
2018-05-11T08:14:59.920Z,11.47
2018-05-11T08:17:29.000Z,10.27
2018-05-11T08:19:57.290Z,11.90
2018-05-11T08:22:25.596Z,11.80
2018-05-11T08:24:53.896Z,12.17
2018-05-11T08:27:22.196Z,10.63
2018-05-11T08:29:51.244Z,10.50
2018-05-11T08:32:19.548Z,13.30
2018-05-11T08:34:47.833Z,12.03
2018-05-11T08:37:16.119Z,10.10
2018-05-11T08:39:44.391Z,9.07
2018-05-11T08:42:12.680Z,9.70
2018-05-11T08:44:41.752Z,10.23
2018-05-11T08:47:10.031Z,8.20
2018-05-11T08:49:38.315Z,12.23
2018-05-11T08:52:06.596Z,7.33
2018-05-11T08:54:34.886Z,7.97
2018-05-11T08:57:03.155Z,7.30
2018-05-11T08:59:31.425Z,8.10
2018-05-11T09:01:59.800Z,6.37
2018-05-11T09:04:28.135Z,7.43
2018-05-11T09:06:56.451Z,8.13
2018-05-11T09:09:24.763Z,9.70
2018-05-11T09:11:54.731Z,7.97
2018-05-11T09:14:23.015Z,8.10
2018-05-11T09:16:51.308Z,10.33
2018-05-11T09:19:20.379Z,7.70
2018-05-11T09:21:48.680Z,10.20
2018-05-11T09:24:17.752Z,8.40
2018-05-11T09:26:46.149Z,8.73
2018-05-11T09:29:14.475Z,6.70
2018-05-11T09:31:42.818Z,11.60
2018-05-11T09:34:11.079Z,8.30
2018-05-11T09:36:40.146Z,8.40
2018-05-11T09:39:08.416Z,7.80
2018-05-11T09:41:37.485Z,6.80
2018-05-11T09:44:06.531Z,6.97
2018-05-11T09:46:34.812Z,11.40
2018-05-11T09:49:03.108Z,8.17
2018-05-11T09:51:31.482Z,8.17
2018-05-11T09:53:59.758Z,7.97
2018-05-11T09:56:28.047Z,7.83
2018-05-11T09:58:57.095Z,8.90
2018-05-11T10:01:25.380Z,9.37
2018-05-11T10:03:53.678Z,5.93
2018-05-11T10:06:22.747Z,8.30
2018-05-11T10:08:51.009Z,8.10
2018-05-11T10:11:19.267Z,11.50
2018-05-11T10:13:47.621Z,6.30
2018-05-11T10:16:15.852Z,7.73
2018-05-11T10:18:44.127Z,7.50
2018-05-11T10:21:12.403Z,8.63
2018-05-11T10:23:40.676Z,7.97
2018-05-11T10:26:08.973Z,8.33
2018-05-11T10:28:38.833Z,9.80
2018-05-11T10:31:07.029Z,11.17
2018-05-11T10:33:35.463Z,7.47
2018-05-11T10:36:03.815Z,7.40
2018-05-11T10:38:32.100Z,8.33
2018-05-11T10:41:02.179Z,8.27
2018-05-11T10:43:30.501Z,8.73
2018-05-11T10:45:58.956Z,8.13
2018-05-11T10:48:27.354Z,8.47
2018-05-11T10:50:56.700Z,6.77
2018-05-11T10:53:25.059Z,7.70
2018-05-11T10:55:54.553Z,10.53
2018-05-11T10:58:22.988Z,8.17
2018-05-11T11:00:51.247Z,7.47
2018-05-11T11:03:19.594Z,6.90
2018-05-11T11:05:48.250Z,7.30
2018-05-11T11:08:16.538Z,7.10
2018-05-11T11:10:45.605Z,7.00
2018-05-11T11:13:13.916Z,8.57
2018-05-11T11:15:42.192Z,6.57
2018-05-11T11:18:11.247Z,7.73
2018-05-11T11:20:39.537Z,8.43
2018-05-11T11:23:07.835Z,6.87
2018-05-11T11:25:36.207Z,6.90
2018-05-11T11:28:04.492Z,6.70
2018-05-11T11:30:33.546Z,7.67
2018-05-11T11:33:01.856Z,6.90
2018-05-11T11:35:30.155Z,6.63
2018-05-11T11:37:59.185Z,6.33
2018-05-11T11:40:27.584Z,7.40
2018-05-11T11:42:55.856Z,8.00
2018-05-11T11:45:24.144Z,8.87
2018-05-11T11:47:52.436Z,6.53
2018-05-11T11:50:20.711Z,7.20
2018-05-11T11:52:49.004Z,7.07
2018-05-11T11:55:18.043Z,6.43
2018-05-11T11:57:46.339Z,8.17
2018-05-11T12:00:14.635Z,7.53
2018-05-11T12:02:42.944Z,9.17
2018-05-11T12:05:11.191Z,8.00
2018-05-11T12:07:39.467Z,7.30
2018-05-11T12:10:08.524Z,8.60
2018-05-11T12:12:36.795Z,8.00
2018-05-11T12:15:05.090Z,8.90
2018-05-11T12:17:33.479Z,6.30
2018-05-11T12:20:01.760Z,7.93
2018-05-11T12:22:30.028Z,7.97
2018-05-11T12:24:58.315Z,6.50
2018-05-11T12:27:26.612Z,7.80
2018-05-11T12:29:56.380Z,9.00
2018-05-11T12:32:24.700Z,7.97
2018-05-11T12:34:53.176Z,5.63
2018-05-11T12:37:22.212Z,8.30
2018-05-11T12:39:50.525Z,8.47
2018-05-11T12:42:18.803Z,8.57
2018-05-11T12:44:47.700Z,8.13
2018-05-11T12:47:15.961Z,7.60
2018-05-11T12:49:44.244Z,7.13
2018-05-11T12:52:12.625Z,7.23
2018-05-11T12:54:41.028Z,6.87
2018-05-11T12:57:09.279Z,7.00
2018-05-11T12:59:37.579Z,6.87
2018-05-11T13:02:05.889Z,7.67
2018-05-11T13:04:34.167Z,7.17
2018-05-11T13:07:02.486Z,8.10
2018-05-11T13:09:30.760Z,6.70
2018-05-11T13:11:59.052Z,8.43
2018-05-11T13:14:27.310Z,8.20
2018-05-11T13:16:55.590Z,7.83
2018-05-11T13:19:23.860Z,8.73
2018-05-11T13:21:52.126Z,7.90
2018-05-11T13:24:20.429Z,8.17
2018-05-11T13:26:48.683Z,8.13
2018-05-11T13:29:16.974Z,10.60
2018-05-11T13:31:45.264Z,9.67
2018-05-11T13:34:13.527Z,7.97
2018-05-11T13:36:41.816Z,7.70
2018-05-11T13:39:10.111Z,8.67
2018-05-11T13:41:38.395Z,7.93
2018-05-11T13:44:06.755Z,10.20
2018-05-11T13:46:35.055Z,7.53
2018-05-11T13:49:04.204Z,9.60
2018-05-11T13:51:32.501Z,9.67
2018-05-11T13:54:00.787Z,8.27
2018-05-11T13:56:29.159Z,15.93
2018-05-11T13:58:58.124Z,13.60
2018-05-11T14:01:26.418Z,9.30
2018-05-11T14:03:54.693Z,10.37
2018-05-11T14:06:24.511Z,9.93
2018-05-11T14:08:52.788Z,8.43
2018-05-11T14:11:22.577Z,7.50
2018-05-11T14:13:50.874Z,7.97
2018-05-11T14:16:19.266Z,8.67
2018-05-11T14:18:47.533Z,8.77
2018-05-11T14:21:15.791Z,7.43
2018-05-11T14:23:44.059Z,7.53
2018-05-11T14:26:12.370Z,8.70
2018-05-11T14:28:40.654Z,8.00
2018-05-11T14:31:08.927Z,7.03
2018-05-11T14:33:38.104Z,17.43
2018-05-11T14:36:06.394Z,10.03
2018-05-11T14:38:34.691Z,6.67
2018-05-11T14:41:03.739Z,8.00
2018-05-11T14:43:32.020Z,7.87
2018-05-11T14:46:00.296Z,5.73
2018-05-11T14:48:28.568Z,7.87
2018-05-11T14:50:56.854Z,6.50
2018-05-11T14:53:25.155Z,8.23
2018-05-11T14:55:53.428Z,7.43
2018-05-11T14:58:22.468Z,11.77
2018-05-11T15:00:50.767Z,6.50
2018-05-11T15:03:19.079Z,8.63
2018-05-11T15:05:48.151Z,9.30
2018-05-11T15:08:17.275Z,11.50
2018-05-11T15:10:45.571Z,7.63
2018-05-11T15:13:13.842Z,9.40
2018-05-11T15:15:42.904Z,7.93
2018-05-11T15:18:11.176Z,7.67
2018-05-11T15:20:39.468Z,6.73
2018-05-11T15:23:08.508Z,6.13
2018-05-11T15:25:36.772Z,7.63
2018-05-11T15:28:05.055Z,6.50
2018-05-11T15:30:33.347Z,7.60
2018-05-11T15:33:01.632Z,7.93
2018-05-11T15:35:29.955Z,6.50
2018-05-11T15:37:58.298Z,5.83
2018-05-11T15:40:26.647Z,5.90
2018-05-11T15:42:55.667Z,6.30
2018-05-11T15:45:23.943Z,6.20
2018-05-11T15:47:53.735Z,6.60
2018-05-11T15:50:22.020Z,5.73
2018-05-11T15:52:50.328Z,5.73
2018-05-11T15:55:19.386Z,6.30
2018-05-11T15:57:47.656Z,6.60
2018-05-11T16:00:15.979Z,6.53
2018-05-11T16:02:44.331Z,6.87
2018-05-11T16:05:12.616Z,8.17
2018-05-11T16:07:40.891Z,8.53
2018-05-11T16:10:10.677Z,7.30
2018-05-11T16:12:38.991Z,7.00
2018-05-11T16:15:07.224Z,7.50
2018-05-11T16:17:35.534Z,7.47
2018-05-11T16:20:04.619Z,6.10
2018-05-11T16:22:32.899Z,5.87
2018-05-11T16:25:01.201Z,7.53
2018-05-11T16:27:29.655Z,6.80
2018-05-11T16:29:57.932Z,6.37
2018-05-11T16:32:26.215Z,5.40
2018-05-11T16:34:55.303Z,6.00
2018-05-11T16:37:23.569Z,5.87
2018-05-11T16:39:51.852Z,5.67
2018-05-11T16:42:20.234Z,5.10
2018-05-11T16:44:48.496Z,5.20
2018-05-11T16:47:16.778Z,7.33
2018-05-11T16:49:45.044Z,7.37
2018-05-11T16:52:13.347Z,8.00
2018-05-11T16:54:41.627Z,6.23
2018-05-11T16:57:09.924Z,5.90
2018-05-11T16:59:38.232Z,5.63
2018-05-11T17:02:06.483Z,5.60
2018-05-11T17:04:35.556Z,6.10
2018-05-11T17:07:03.818Z,6.17
2018-05-11T17:09:32.091Z,6.40
2018-05-11T17:12:00.395Z,7.80
2018-05-11T17:14:28.659Z,6.27
2018-05-11T17:16:56.921Z,6.53
2018-05-11T17:19:25.219Z,7.43
2018-05-11T17:21:53.499Z,5.93
2018-05-11T17:24:21.744Z,8.03
2018-05-11T17:26:50.030Z,6.07
2018-05-11T17:29:18.293Z,7.57
2018-05-11T17:31:50.507Z,6.97
2018-05-11T17:34:19.561Z,6.60
2018-05-11T17:36:47.813Z,8.00
2018-05-11T17:39:16.096Z,8.20
2018-05-11T17:41:44.399Z,6.43
2018-05-11T17:44:12.688Z,7.03
2018-05-11T17:46:40.961Z,7.47
2018-05-11T17:49:09.337Z,7.90
2018-05-11T17:51:38.926Z,7.80
2018-05-11T17:54:07.239Z,7.67
2018-05-11T17:56:36.335Z,8.07
2018-05-11T17:59:04.678Z,8.13
2018-05-11T18:01:32.988Z,6.90
2018-05-11T18:04:01.454Z,6.33
2018-05-11T18:06:29.816Z,7.73
2018-05-11T18:08:58.057Z,7.43
2018-05-11T18:11:26.367Z,7.90
2018-05-11T18:13:54.768Z,7.93
2018-05-11T18:16:23.047Z,7.87
2018-05-11T18:18:51.340Z,6.77
2018-05-11T18:21:20.399Z,7.17
2018-05-11T18:23:48.783Z,7.40
2018-05-11T18:26:17.051Z,7.50
2018-05-11T18:28:45.347Z,6.97
2018-05-11T18:31:13.644Z,8.17
2018-05-11T18:33:42.022Z,8.07
2018-05-11T18:36:11.071Z,7.60
2018-05-11T18:38:39.360Z,7.37
2018-05-11T18:41:08.435Z,10.03
2018-05-11T18:43:37.577Z,7.30
2018-05-11T18:46:05.864Z,7.80
2018-05-11T18:48:34.139Z,7.23
2018-05-11T18:51:02.493Z,6.67
2018-05-11T18:53:31.150Z,8.10
2018-05-11T18:55:59.230Z,8.70
2018-05-11T18:58:27.499Z,8.83
2018-05-11T19:00:55.836Z,8.27
2018-05-11T19:03:24.179Z,8.07
2018-05-11T19:05:53.271Z,8.33
2018-05-11T19:08:21.647Z,8.63
2018-05-11T19:10:49.949Z,7.83
2018-05-11T19:13:18.325Z,7.73
2018-05-11T19:15:47.438Z,8.57
2018-05-11T19:18:15.719Z,10.13
2018-05-11T19:20:44.804Z,6.90
2018-05-11T19:23:13.847Z,7.40
2018-05-11T19:25:42.123Z,7.30
2018-05-11T19:28:10.484Z,8.87
2018-05-11T19:30:38.759Z,8.00
2018-05-11T19:33:07.036Z,7.53
2018-05-11T19:35:35.329Z,8.93
2018-05-11T19:38:03.664Z,8.83
2018-05-11T19:40:32.713Z,9.27
2018-05-11T19:43:00.976Z,8.20
2018-05-11T19:45:29.276Z,8.07
2018-05-11T19:47:57.561Z,7.87
2018-05-11T19:50:25.843Z,6.70
2018-05-11T19:52:54.460Z,7.53
2018-05-11T19:55:22.936Z,7.20
2018-05-11T19:57:51.215Z,7.47
2018-05-11T20:00:19.491Z,8.50
2018-05-11T20:02:47.788Z,8.17
2018-05-11T20:05:16.896Z,8.20
2018-05-11T20:07:45.316Z,6.40
2018-05-11T20:10:13.897Z,7.40
2018-05-11T20:12:42.900Z,7.57
2018-05-11T20:15:11.160Z,8.13
2018-05-11T20:17:40.819Z,8.40
2018-05-11T20:20:09.152Z,7.77
2018-05-11T20:22:38.761Z,7.93
2018-05-11T20:25:08.164Z,8.93
2018-05-11T20:27:36.796Z,9.27
2018-05-11T20:30:05.175Z,9.73
2018-05-11T20:32:33.799Z,8.83
2018-05-11T20:35:02.352Z,9.10
2018-05-11T20:37:30.653Z,9.83
2018-05-11T20:39:58.947Z,8.67
2018-05-11T20:42:27.227Z,8.67
2018-05-11T20:44:56.732Z,9.47
2018-05-11T20:47:25.269Z,6.83
2018-05-11T20:49:53.693Z,8.07
2018-05-11T20:52:22.834Z,8.87
2018-05-11T20:54:51.158Z,7.60
2018-05-11T20:57:19.464Z,9.57
2018-05-11T20:59:47.780Z,8.90
2018-05-11T21:02:16.076Z,9.20
2018-05-11T21:04:44.534Z,9.00
2018-05-11T21:07:14.374Z,8.93
2018-05-11T21:09:43.690Z,8.47
2018-05-11T21:12:12.516Z,9.40
2018-05-11T21:14:40.964Z,9.77
2018-05-11T21:17:09.540Z,11.47
2018-05-11T21:19:38.091Z,10.13
2018-05-11T21:22:06.402Z,11.13
2018-05-11T21:24:35.986Z,12.53
2018-05-11T21:27:04.467Z,10.97
2018-05-11T21:29:33.238Z,11.67
2018-05-11T21:32:02.431Z,11.90
2018-05-11T21:34:31.626Z,11.80
2018-05-11T21:37:00.136Z,12.20
2018-05-11T21:39:28.531Z,11.97
2018-05-11T21:41:57.037Z,11.40
2018-05-11T21:44:25.451Z,11.50
2018-05-11T21:46:53.822Z,12.60
2018-05-11T21:49:22.195Z,12.07
2018-05-11T21:51:50.490Z,10.67
2018-05-11T21:54:18.819Z,11.13
2018-05-11T21:56:47.246Z,11.20
2018-05-11T21:59:17.406Z,11.53
2018-05-11T22:01:47.273Z,13.43
2018-05-11T22:04:16.010Z,10.90
2018-05-11T22:06:44.767Z,11.50
2018-05-11T22:09:13.160Z,10.20
2018-05-11T22:11:42.503Z,11.73
2018-05-11T22:14:11.740Z,9.93
2018-05-11T22:16:40.069Z,9.47
2018-05-11T22:19:09.382Z,13.97
2018-05-11T22:21:38.737Z,9.70
2018-05-11T22:24:07.032Z,9.03
2018-05-11T22:26:36.231Z,8.73
2018-05-11T22:29:04.575Z,10.20
2018-05-11T22:31:33.287Z,9.10
2018-05-11T22:34:01.632Z,9.80
2018-05-11T22:36:30.014Z,8.57
2018-05-11T22:38:58.723Z,9.43
2018-05-11T22:41:27.878Z,8.67
2018-05-11T22:43:56.148Z,8.80
2018-05-11T22:46:24.481Z,8.90
2018-05-11T22:48:53.104Z,8.30
2018-05-11T22:51:21.440Z,8.23
2018-05-11T22:53:50.565Z,9.07
2018-05-11T22:56:19.036Z,7.70
2018-05-11T22:58:47.678Z,7.17
2018-05-11T23:01:16.876Z,8.23
2018-05-11T23:03:45.232Z,7.90
2018-05-11T23:06:13.762Z,7.30
2018-05-11T23:08:42.122Z,7.50
2018-05-11T23:11:10.589Z,9.53
2018-05-11T23:13:38.903Z,8.00
2018-05-11T23:16:07.387Z,8.80
2018-05-11T23:18:36.530Z,8.23
2018-05-11T23:21:04.855Z,9.77
2018-05-11T23:23:33.926Z,8.53
2018-05-11T23:26:03.276Z,9.40
2018-05-11T23:28:31.607Z,10.20
2018-05-11T23:31:00.682Z,10.10
2018-05-11T23:33:29.040Z,9.30
2018-05-11T23:35:57.460Z,10.37
2018-05-11T23:38:25.829Z,12.20
2018-05-11T23:40:54.175Z,10.87
2018-05-11T23:43:22.501Z,14.23
2018-05-11T23:45:50.996Z,13.50
2018-05-11T23:48:19.533Z,14.70
2018-05-11T23:50:47.950Z,14.67
2018-05-11T23:53:16.365Z,14.77
2018-05-11T23:55:44.802Z,15.30
2018-05-11T23:58:13.227Z,16.63
